Time;durP1;ratioP1;P1;durP2;ratioP2;P2;SDS_P1;SDS_P2;PMS_P1;PMS_P2;Temp;Humidity;BMP_temperature;BMP_pressure;BME280_temperature;BME280_humidity;BME280_pressure;Samples;Min_cycle;Max_cycle;Signal;HPM_P1;HPM_P2
2023/08/08 00:01:23;;;;;;;;;;;;;;;13.42;91.00;101370.72;5008134;28;1064;-74
2023/08/08 00:03:48;;;;;;;;;;;;;;;13.41;91.31;101369.88;5008487;28;1049;-73
2023/08/08 00:06:13;;;;;;;;;;;;;;;13.41;91.16;101363.84;5009964;28;1154;-73
2023/08/08 00:08:39;;;;;;;;;;;;;;;13.41;90.93;101369.06;4992543;28;1445;-73
2023/08/08 00:11:04;;;;;;;;;;;;;;;13.39;91.42;101355.34;5010474;28;1890;-73
2023/08/08 00:13:29;;;;;;;;;;;;;;;13.41;91.75;101369.06;4992862;28;1492;-73
2023/08/08 00:15:54;;;;;;;;;;;;;;;13.42;91.64;101365.50;5010249;28;1076;-73
2023/08/08 00:18:20;;;;;;;;;;;;;;;13.42;91.67;101368.09;5010325;28;1142;-73
2023/08/08 00:20:45;;;;;;;;;;;;;;;13.43;91.90;101369.78;5010198;28;1088;-73
2023/08/08 00:23:10;;;;;;;;;;;;;;;13.43;91.86;101361.97;4992394;28;1291;-73
2023/08/08 00:25:36;;;;;;;;;;;;;;;13.44;91.64;101367.03;5009767;28;1244;-74
2023/08/08 00:28:01;;;;;;;;;;;;;;;13.44;92.03;101368.81;5002416;28;1148;-73
2023/08/08 00:30:26;;;;;;;;;;;;;;;13.45;92.25;101370.47;4996082;28;1968;-74
2023/08/08 00:32:51;;;;;;;;;;;;;;;13.45;92.33;101370.47;4997857;28;1077;-73
2023/08/08 00:35:16;;;;;;;;;;;;;;;13.46;92.29;101361.69;5006304;28;1087;-73
2023/08/08 00:37:41;;;;;;;;;;;;;;;13.46;92.48;101361.69;5003591;28;1106;-73
2023/08/08 00:40:07;;;;;;;;;;;;;;;13.47;92.39;101353.72;4997044;28;1103;-73
2023/08/08 00:42:32;;;;;;;;;;;;;;;13.48;92.69;101355.41;5002245;28;1158;-73
2023/08/08 00:45:03;;;;;;;;;;;;;;;13.49;92.55;101348.41;4978070;28;1217;-72
2023/08/08 00:47:29;;;;;;;;;;;;;;;13.53;92.44;101352.38;5001180;28;925;-73
2023/08/08 00:49:55;;;;;;;;;;;;;;;13.53;92.37;101341.97;4986460;28;1957;-73
2023/08/08 00:52:20;;;;;;;;;;;;;;;13.50;92.56;101331.81;4987376;28;991;-73
2023/08/08 00:54:45;;;;;;;;;;;;;;;13.53;92.69;101339.34;4970173;28;1400;-73
2023/08/08 00:57:11;;;;;;;;;;;;;;;13.52;92.58;101342.91;4988381;28;1243;-74
2023/08/08 00:59:37;;;;;;;;;;;;;;;13.51;92.62;101343.88;4991385;28;1158;-73
2023/08/08 01:02:02;;;;;;;;;;;;;;;13.52;92.75;101329.88;4992215;28;1105;-73
2023/08/08 01:04:27;;;;;;;;;;;;;;;13.51;92.67;101333.47;4990471;28;1164;-73
2023/08/08 01:07:11;;;;;;;;;;;;;;;13.50;92.86;101337.03;4977337;28;1719;-73
2023/08/08 01:09:38;;;;;;;;;;;;;;;13.50;92.78;101326.59;4988569;28;1915;-73
2023/08/08 01:12:05;;;;;;;;;;;;;;;13.49;92.48;101336.22;4977878;28;1337;-73
2023/08/08 01:14:32;;;;;;;;;;;;;;;13.46;92.98;101336.44;4991266;28;1062;-73
2023/08/08 01:16:57;;;;;;;;;;;;;;;13.43;93.04;101341.13;4994451;28;1252;-73
2023/08/08 01:19:25;;;;;;;;;;;;;;;13.43;93.05;101328.09;4980948;28;1492;-73
2023/08/08 01:21:52;;;;;;;;;;;;;;;13.44;93.12;101329.72;4998258;28;1113;-73
2023/08/08 01:24:19;;;;;;;;;;;;;;;13.45;93.19;101329.59;5001790;28;1098;-72
2023/08/08 01:26:45;;;;;;;;;;;;;;;13.43;93.43;101325.50;4972818;28;1221;-73
2023/08/08 01:29:10;;;;;;;;;;;;;;;13.47;93.07;101334.66;4972565;28;1890;-73
2023/08/08 01:31:36;;;;;;;;;;;;;;;13.43;93.26;101346.34;4989280;28;1076;-73
2023/08/08 01:34:01;;;;;;;;;;;;;;;13.43;93.39;101346.34;4975781;28;1395;-73
2023/08/08 01:36:32;;;;;;;;;;;;;;;13.42;93.88;101339.44;4971096;28;1345;-73
2023/08/08 01:39:02;;;;;;;;;;;;;;;13.44;93.87;101337.56;4969363;28;1365;-73
2023/08/08 01:41:27;;;;;;;;;;;;;;;13.45;93.95;101344.41;4991208;28;1115;-73
2023/08/08 01:43:53;;;;;;;;;;;;;;;13.45;93.92;101341.81;4972136;28;1342;-74
2023/08/08 01:46:18;;;;;;;;;;;;;;;13.47;94.27;101339.88;4989452;28;1111;-74
2023/08/08 01:48:44;;;;;;;;;;;;;;;13.45;95.10;101323.56;4972684;28;1243;-73
2023/08/08 01:51:09;;;;;;;;;;;;;;;13.46;94.96;101312.19;4972095;28;1898;-74
2023/08/08 01:53:35;;;;;;;;;;;;;;;13.46;95.24;101314.78;4990454;28;1178;-73
2023/08/08 01:56:00;;;;;;;;;;;;;;;13.47;95.81;101316.44;4989317;28;1104;-73
2023/08/08 01:58:25;;;;;;;;;;;;;;;13.47;95.42;101313.81;4973332;28;1464;-73
2023/08/08 02:00:50;;;;;;;;;;;;;;;13.47;95.74;101317.25;4990674;28;1175;-75
2023/08/08 02:03:15;;;;;;;;;;;;;;;13.46;96.02;101304.38;4969453;28;1150;-74
2023/08/08 02:05:40;;;;;;;;;;;;;;;13.47;96.58;101311.22;4979716;28;1163;-74
2023/08/08 02:08:06;;;;;;;;;;;;;;;13.46;96.23;101307.78;4991462;28;1085;-74
2023/08/08 02:10:31;;;;;;;;;;;;;;;13.45;96.82;101307.94;4989429;28;1898;-73
2023/08/08 02:12:57;;;;;;;;;;;;;;;13.44;96.85;101306.28;4993248;28;1148;-73
2023/08/08 02:15:22;;;;;;;;;;;;;;;13.44;96.86;101306.28;4975498;28;1273;-73
2023/08/08 02:17:47;;;;;;;;;;;;;;;13.41;96.90;101307.34;4992664;28;1100;-73
2023/08/08 02:20:12;;;;;;;;;;;;;;;13.41;97.12;101301.31;4992892;28;1193;-74
2023/08/08 02:22:38;;;;;;;;;;;;;;;13.37;97.44;101302.56;4993340;28;1080;-73
2023/08/08 02:25:03;;;;;;;;;;;;;;;13.36;97.67;101300.88;4992971;28;1108;-74
2023/08/08 02:27:28;;;;;;;;;;;;;;;13.33;97.58;101306.38;4993554;28;1182;-73
2023/08/08 02:29:54;;;;;;;;;;;;;;;13.30;97.72;101304.84;5011874;28;1965;-74
2023/08/08 02:32:19;;;;;;;;;;;;;;;13.28;98.05;101302.38;5012114;28;1079;-73
2023/08/08 02:34:44;;;;;;;;;;;;;;;13.25;97.94;101300.06;5010356;28;1222;-74
2023/08/08 02:37:09;;;;;;;;;;;;;;;13.25;98.34;101302.66;5006676;28;1100;-73
2023/08/08 02:39:34;;;;;;;;;;;;;;;13.22;98.14;101315.94;5009451;28;1233;-73
2023/08/08 02:41:59;;;;;;;;;;;;;;;13.20;98.36;101302.19;5009143;28;1155;-73
2023/08/08 02:44:25;;;;;;;;;;;;;;;13.19;98.46;101297.94;4991841;28;1158;-74
2023/08/08 02:46:50;;;;;;;;;;;;;;;13.17;98.99;101307.66;4991188;28;1271;-75
2023/08/08 02:49:15;;;;;;;;;;;;;;;13.18;98.83;101296.25;5009296;28;1964;-75
2023/08/08 02:51:40;;;;;;;;;;;;;;;13.16;98.71;101297.38;5009734;28;1063;-73
2023/08/08 02:54:05;;;;;;;;;;;;;;;13.15;98.96;101296.53;4993105;28;1413;-74
2023/08/08 02:56:31;;;;;;;;;;;;;;;13.14;98.78;101300.09;5011527;28;1115;-73
2023/08/08 02:58:56;;;;;;;;;;;;;;;13.13;98.60;101298.47;5011601;28;1193;-74
2023/08/08 03:01:21;;;;;;;;;;;;;;;13.12;98.92;101286.38;5012093;28;1103;-73
2023/08/08 03:03:47;;;;;;;;;;;;;;;13.13;99.08;101288.03;5027004;28;1244;-74
2023/08/08 03:06:12;;;;;;;;;;;;;;;13.11;99.31;101279.50;5026204;28;1326;-74
2023/08/08 03:08:37;;;;;;;;;;;;;;;13.10;99.17;101277.88;5011714;28;1175;-74
2023/08/08 03:11:02;;;;;;;;;;;;;;;13.09;99.36;101276.22;5008059;28;1890;-74
2023/08/08 03:13:27;;;;;;;;;;;;;;;13.08;99.61;101271.16;5011663;28;1249;-73
2023/08/08 03:15:53;;;;;;;;;;;;;;;13.06;99.37;101276.47;4993879;28;1426;-73
2023/08/08 03:18:18;;;;;;;;;;;;;;;13.07;99.65;101278.13;5010847;28;1096;-73
2023/08/08 03:20:43;;;;;;;;;;;;;;;13.05;99.79;101266.19;5011730;28;1101;-73
2023/08/08 03:23:08;;;;;;;;;;;;;;;13.05;99.52;101269.63;4993844;28;1270;-74
2023/08/08 03:25:33;;;;;;;;;;;;;;;13.03;99.79;101271.53;5011133;28;1114;-73
2023/08/08 03:27:58;;;;;;;;;;;;;;;13.01;99.98;101273.44;5010308;28;1148;-73
2023/08/08 03:30:24;;;;;;;;;;;;;;;13.00;100.00;101277.81;4992023;28;1956;-74
2023/08/08 03:32:49;;;;;;;;;;;;;;;12.98;100.00;101278.91;5009231;28;1120;-74
2023/08/08 03:35:14;;;;;;;;;;;;;;;12.99;100.00;101280.56;5007989;28;1096;-73
2023/08/08 03:37:40;;;;;;;;;;;;;;;12.98;100.00;101277.13;5007128;28;1075;-73
2023/08/08 03:40:07;;;;;;;;;;;;;;;12.96;100.00;101286.00;5007375;28;1093;-73
2023/08/08 03:42:32;;;;;;;;;;;;;;;12.93;100.00;101281.06;5008154;28;1075;-74
2023/08/08 03:44:57;;;;;;;;;;;;;;;12.91;100.00;101272.59;4989885;28;1462;-75
2023/08/08 03:47:23;;;;;;;;;;;;;;;12.90;100.00;101276.13;4991165;28;1335;-73
2023/08/08 03:49:48;;;;;;;;;;;;;;;12.87;100.00;101271.19;5009280;28;1898;-74
2023/08/08 03:52:13;;;;;;;;;;;;;;;12.86;100.00;101269.53;5010359;28;1147;-73
2023/08/08 03:54:38;;;;;;;;;;;;;;;12.82;100.00;101268.13;5009680;28;1111;-73
2023/08/08 03:57:04;;;;;;;;;;;;;;;12.82;100.00;101268.13;5009912;28;1058;-73
2023/08/08 03:59:29;;;;;;;;;;;;;;;12.81;100.00;101271.69;5010881;28;1075;-73
2023/08/08 04:01:54;;;;;;;;;;;;;;;12.80;100.00;101270.06;5010217;28;1091;-74
2023/08/08 04:04:19;;;;;;;;;;;;;;;12.80;100.00;101267.44;5010417;28;1065;-74
2023/08/08 04:06:44;;;;;;;;;;;;;;;12.79;100.00;101271.84;5010047;28;1266;-73
2023/08/08 04:09:10;;;;;;;;;;;;;;;12.79;100.00;101264.03;4992559;28;1185;-73
2023/08/08 04:11:35;;;;;;;;;;;;;;;12.77;100.00;101261.53;5010412;28;1945;-74
2023/08/08 04:14:01;;;;;;;;;;;;;;;12.77;100.00;101265.91;5010475;28;1069;-75
2023/08/08 04:16:26;;;;;;;;;;;;;;;12.79;100.00;101257.97;5010091;28;1071;-73
2023/08/08 04:18:51;;;;;;;;;;;;;;;12.79;100.00;101250.16;5010705;28;1171;-74
2023/08/08 04:21:16;;;;;;;;;;;;;;;12.78;100.00;101257.16;5010170;28;1230;-73
2023/08/08 04:23:41;;;;;;;;;;;;;;;12.80;100.00;101259.66;4991627;28;1287;-74
2023/08/08 04:26:06;;;;;;;;;;;;;;;12.81;100.00;101256.09;5017877;28;1381;-74
2023/08/08 04:28:32;;;;;;;;;;;;;;;12.81;100.00;101251.69;5007677;28;1127;-73
2023/08/08 04:30:57;;;;;;;;;;;;;;;12.83;100.00;101259.38;4990231;28;1871;-74
2023/08/08 04:33:22;;;;;;;;;;;;;;;12.86;100.00;101253.91;5006672;28;1140;-73
2023/08/08 04:35:47;;;;;;;;;;;;;;;12.88;100.00;101252.00;5006149;28;1150;-73
2023/08/08 04:38:13;;;;;;;;;;;;;;;12.89;100.00;101258.84;5005814;28;1116;-74
2023/08/08 04:40:39;;;;;;;;;;;;;;;12.91;100.00;101267.38;5005220;28;1294;-74
2023/08/08 04:43:04;;;;;;;;;;;;;;;12.91;100.00;101259.56;5007872;28;1088;-75
2023/08/08 04:45:29;;;;;;;;;;;;;;;12.92;100.00;101256.81;5008155;28;1107;-74
2023/08/08 04:47:55;;;;;;;;;;;;;;;12.95;100.00;101263.53;5009170;28;1182;-74
2023/08/08 04:50:20;;;;;;;;;;;;;;;12.96;100.00;101259.97;4992416;28;1898;-75
2023/08/08 04:52:45;;;;;;;;;;;;;;;12.97;100.00;101256.44;5009983;28;1130;-74
2023/08/08 04:55:10;;;;;;;;;;;;;;;13.00;100.00;101261.38;5007938;28;1193;-74
2023/08/08 04:57:35;;;;;;;;;;;;;;;13.01;100.00;101257.81;5008145;28;1126;-74
2023/08/08 05:00:04;;;;;;;;;;;;;;;13.02;100.00;101259.47;4990457;28;1322;-75
2023/08/08 05:02:30;;;;;;;;;;;;;;;13.01;100.00;101252.59;5001850;28;984;-74
2023/08/08 05:04:55;;;;;;;;;;;;;;;13.00;100.00;101256.16;4990727;28;1217;-74
2023/08/08 05:07:20;;;;;;;;;;;;;;;13.04;100.00;101247.16;5006606;28;1093;-74
2023/08/08 05:09:45;;;;;;;;;;;;;;;13.05;100.00;101254.00;5004090;28;1956;-74
2023/08/08 05:12:11;;;;;;;;;;;;;;;13.09;100.00;101255.41;4989745;28;1181;-75
2023/08/08 05:14:36;;;;;;;;;;;;;;;13.12;100.00;101267.31;5012880;28;1178;-74
2023/08/08 05:17:01;;;;;;;;;;;;;;;13.12;100.00;101251.69;4995918;28;1225;-74
2023/08/08 05:19:27;;;;;;;;;;;;;;;13.12;100.00;101252.50;5012396;28;1089;-73
2023/08/08 05:21:52;;;;;;;;;;;;;;;13.15;100.00;101248.84;5013475;28;1100;-73
2023/08/08 05:24:18;;;;;;;;;;;;;;;13.15;100.00;101244.44;4993118;28;1311;-74
2023/08/08 05:26:43;;;;;;;;;;;;;;;13.17;100.00;101236.50;5011109;28;1124;-74
2023/08/08 05:29:08;;;;;;;;;;;;;;;13.18;100.00;101243.34;5009994;28;1025;-74
2023/08/08 05:31:33;;;;;;;;;;;;;;;13.20;100.00;101242.28;5010394;28;1890;-73
2023/08/08 05:33:58;;;;;;;;;;;;;;;13.21;100.00;101253.56;5010170;28;1018;-74
2023/08/08 05:36:23;;;;;;;;;;;;;;;13.21;100.00;101246.56;4991970;28;1333;-74
2023/08/08 05:38:49;;;;;;;;;;;;;;;13.22;100.00;101249.97;5011199;28;1012;-74
2023/08/08 05:41:14;;;;;;;;;;;;;;;13.24;100.00;101254.09;5011673;28;1108;-75
2023/08/08 05:43:39;;;;;;;;;;;;;;;13.26;100.00;101252.19;5012873;28;1079;-74
2023/08/08 05:46:04;;;;;;;;;;;;;;;13.31;100.00;101248.38;4994518;28;1310;-74
2023/08/08 05:48:29;;;;;;;;;;;;;;;13.33;100.00;101252.50;4995022;28;1365;-74
2023/08/08 05:50:58;;;;;;;;;;;;;;;13.36;100.00;101252.25;5012961;28;1956;-73
2023/08/08 05:53:23;;;;;;;;;;;;;;;13.40;100.00;101258.00;5012318;28;1085;-74
2023/08/08 05:55:49;;;;;;;;;;;;;;;13.43;100.00;101249.94;5012026;28;1515;-74
2023/08/08 05:58:15;;;;;;;;;;;;;;;13.46;100.00;101262.66;5011694;28;1084;-74
2023/08/08 06:00:40;;;;;;;;;;;;;;;13.48;100.00;101266.81;4994544;28;1229;-74
2023/08/08 06:03:05;;;;;;;;;;;;;;;13.51;100.00;101260.50;5012339;28;1079;-76
2023/08/08 06:05:30;;;;;;;;;;;;;;;13.54;100.00;101260.25;5012015;28;1172;-74
2023/08/08 06:07:56;;;;;;;;;;;;;;;13.58;100.00;101271.19;5011871;28;1107;-74
2023/08/08 06:10:21;;;;;;;;;;;;;;;13.60;100.00;101270.13;4987306;28;1910;-74
2023/08/08 06:12:47;;;;;;;;;;;;;;;13.64;100.00;101271.47;5012596;28;1102;-74
2023/08/08 06:15:12;;;;;;;;;;;;;;;13.68;100.00;101272.88;5011650;28;1103;-73
2023/08/08 06:17:37;;;;;;;;;;;;;;;13.71;100.00;101272.63;5012302;28;1166;-74
2023/08/08 06:20:03;;;;;;;;;;;;;;;13.74;100.00;101282.75;4993402;28;1296;-74
2023/08/08 06:22:28;;;;;;;;;;;;;;;13.76;100.00;101275.66;5010242;28;1162;-75
2023/08/08 06:24:53;;;;;;;;;;;;;;;13.79;100.00;101277.97;5009837;28;1156;-74
2023/08/08 06:27:18;;;;;;;;;;;;;;;13.81;100.00;101286.47;5008579;28;1128;-74
2023/08/08 06:29:44;;;;;;;;;;;;;;;13.84;100.00;101284.56;5009358;28;1969;-74
2023/08/08 06:32:09;;;;;;;;;;;;;;;13.87;100.00;101286.91;4991435;28;1268;-74
2023/08/08 06:34:34;;;;;;;;;;;;;;;13.90;100.00;101286.63;4992630;28;1272;-75
2023/08/08 06:36:59;;;;;;;;;;;;;;;13.94;100.00;101288.03;5010227;28;1143;-74
2023/08/08 06:39:25;;;;;;;;;;;;;;;13.98;100.00;101305.03;5011464;28;1097;-74
2023/08/08 06:41:50;;;;;;;;;;;;;;;14.02;100.00;101295.97;5012408;28;1118;-74
2023/08/08 06:44:15;;;;;;;;;;;;;;;14.04;100.00;101299.28;5011908;28;1183;-74
2023/08/08 06:46:40;;;;;;;;;;;;;;;14.07;100.00;101294.63;4993640;28;1264;-73
2023/08/08 06:49:06;;;;;;;;;;;;;;;14.11;100.00;101295.19;5012133;28;1145;-74
2023/08/08 06:51:32;;;;;;;;;;;;;;;14.16;100.00;101302.56;5011540;28;1985;-75
2023/08/08 06:53:57;;;;;;;;;;;;;;;14.16;100.00;101297.34;4994175;28;1326;-74
2023/08/08 06:56:22;;;;;;;;;;;;;;;14.19;100.00;101300.53;5010253;28;1207;-74
2023/08/08 06:58:47;;;;;;;;;;;;;;;14.26;100.00;101293.78;5010261;28;1036;-74
2023/08/08 07:01:13;;;;;;;;;;;;;;;14.34;100.00;101301.78;4992718;28;1217;-74
2023/08/08 07:03:39;;;;;;;;;;;;;;;14.41;100.00;101303.81;5010224;28;1176;-74
2023/08/08 07:06:04;;;;;;;;;;;;;;;14.45;100.00;101297.34;5009551;28;1185;-74
2023/08/08 07:08:29;;;;;;;;;;;;;;;14.50;100.00;101305.63;5010282;28;1068;-73
2023/08/08 07:10:54;;;;;;;;;;;;;;;14.54;100.00;101299.16;5008470;28;1894;-74
2023/08/08 07:13:20;;;;;;;;;;;;;;;14.56;100.00;101305.06;5011454;28;1170;-74
2023/08/08 07:15:45;;;;;;;;;;;;;;;14.59;100.00;101304.78;5009962;28;1178;-74
2023/08/08 07:18:10;;;;;;;;;;;;;;;14.63;100.00;101306.19;5009094;28;1062;-74
2023/08/08 07:20:35;;;;;;;;;;;;;;;14.69;100.00;101303.00;4991196;28;1534;-74
2023/08/08 07:23:01;;;;;;;;;;;;;;;14.76;100.00;101300.66;4990266;28;1293;-74
2023/08/08 07:25:26;;;;;;;;;;;;;;;14.82;100.00;101311.34;5008253;28;1083;-74
2023/08/08 07:27:51;;;;;;;;;;;;;;;14.91;100.00;101290.56;5008069;28;1079;-76
2023/08/08 07:30:17;;;;;;;;;;;;;;;14.96;100.00;101290.97;5009145;28;1917;-74
2023/08/08 07:32:42;;;;;;;;;;;;;;;15.04;100.00;101296.31;5009837;28;933;-74
2023/08/08 07:35:08;;;;;;;;;;;;;;;15.08;100.00;101297.66;5009944;28;1180;-74
2023/08/08 07:37:33;;;;;;;;;;;;;;;15.14;100.00;101297.13;4991980;28;1204;-74
2023/08/08 07:39:59;;;;;;;;;;;;;;;15.23;100.00;101293.63;5010965;28;1211;-74
2023/08/08 07:42:24;;;;;;;;;;;;;;;15.29;100.00;101287.81;5010135;28;1124;-74
2023/08/08 07:44:49;;;;;;;;;;;;;;;15.36;100.00;101282.81;5010434;28;1176;-74
2023/08/08 07:47:14;;;;;;;;;;;;;;;15.43;100.00;101283.09;5010089;28;1160;-74
2023/08/08 07:49:40;;;;;;;;;;;;;;;15.49;100.00;101287.75;5010273;28;1961;-74
2023/08/08 07:52:05;;;;;;;;;;;;;;;15.59;100.00;101283.25;5010715;28;1105;-74
2023/08/08 07:54:30;;;;;;;;;;;;;;;15.65;99.85;101277.47;5009305;28;1084;-74
2023/08/08 07:56:55;;;;;;;;;;;;;;;15.72;98.91;101273.31;5009683;28;1174;-74
2023/08/08 07:59:21;;;;;;;;;;;;;;;15.79;98.14;101279.59;5009866;28;1167;-74
2023/08/08 08:01:46;;;;;;;;;;;;;;;15.82;97.62;101268.81;5009991;28;1095;-74
2023/08/08 08:04:11;;;;;;;;;;;;;;;15.92;97.14;101280.03;5010032;28;1023;-74
2023/08/08 08:06:37;;;;;;;;;;;;;;;15.96;96.41;101275.34;5009044;28;1046;-74
2023/08/08 08:09:03;;;;;;;;;;;;;;;15.99;96.55;101274.22;4991462;28;1278;-74
2023/08/08 08:11:28;;;;;;;;;;;;;;;16.06;94.77;101285.75;4991443;28;1957;-74
2023/08/08 08:13:53;;;;;;;;;;;;;;;16.11;95.09;101275.63;5008417;28;1126;-74
2023/08/08 08:16:19;;;;;;;;;;;;;;;16.16;94.29;101261.13;4990494;28;1166;-74
2023/08/08 08:18:44;;;;;;;;;;;;;;;16.28;92.93;101274.78;4989579;28;1350;-74
2023/08/08 08:21:09;;;;;;;;;;;;;;;16.29;91.61;101276.47;4989222;28;1178;-74
2023/08/08 08:23:34;;;;;;;;;;;;;;;16.32;91.88;101276.16;5007032;28;1108;-73
2023/08/08 08:26:00;;;;;;;;;;;;;;;16.32;89.97;101270.91;5007909;28;1114;-74
2023/08/08 08:28:25;;;;;;;;;;;;;;;16.33;89.37;101283.03;4990875;28;1213;-75
2023/08/08 08:30:51;;;;;;;;;;;;;;;16.36;89.32;101271.44;5008875;28;1965;-74
2023/08/08 08:33:16;;;;;;;;;;;;;;;16.45;88.38;101276.56;5010123;28;1146;-74
2023/08/08 08:35:41;;;;;;;;;;;;;;;16.48;87.21;101274.63;4992411;28;1256;-74
2023/08/08 08:38:07;;;;;;;;;;;;;;;16.50;87.36;101280.53;5009426;28;1081;-74
2023/08/08 08:40:35;;;;;;;;;;;;;;;16.60;86.63;101289.94;5009586;28;1112;-74
2023/08/08 08:43:01;;;;;;;;;;;;;;;16.72;84.24;101282.69;5009903;28;1072;-74
2023/08/08 08:45:28;;;;;;;;;;;;;;;16.69;83.11;101290.84;5009295;28;1088;-74
2023/08/08 08:47:55;;;;;;;;;;;;;;;16.66;82.84;101278.84;5008405;28;1083;-74
2023/08/08 08:50:21;;;;;;;;;;;;;;;16.73;81.57;101279.09;5009779;28;1898;-74
2023/08/08 08:52:46;;;;;;;;;;;;;;;16.72;81.04;101278.28;5009591;28;1212;-73
2023/08/08 08:55:12;;;;;;;;;;;;;;;16.71;80.86;101273.19;5009021;28;1279;-73
2023/08/08 08:57:37;;;;;;;;;;;;;;;16.84;79.07;101278.81;5009087;28;1135;-74
2023/08/08 09:00:03;;;;;;;;;;;;;;;16.85;78.23;101272.59;5009644;28;1075;-75
2023/08/08 09:02:28;;;;;;;;;;;;;;;16.93;77.74;101280.53;5009121;28;1112;-73
2023/08/08 09:04:53;;;;;;;;;;;;;;;16.94;78.01;101282.16;4992094;28;1165;-73
2023/08/08 09:07:20;;;;;;;;;;;;;;;17.10;75.23;101285.88;5008217;28;1116;-74
2023/08/08 09:09:45;;;;;;;;;;;;;;;17.00;76.10;101280.72;4989572;28;1902;-74
2023/08/08 09:12:12;;;;;;;;;;;;;;;17.03;76.62;101279.56;5008220;28;1090;-74
2023/08/08 09:14:39;;;;;;;;;;;;;;;17.08;76.56;101282.56;4988592;28;1329;-74
2023/08/08 09:17:09;;;;;;;;;;;;;;;17.05;72.48;101293.38;5006011;28;1091;-73
2023/08/08 09:19:35;;;;;;;;;;;;;;;17.05;74.84;101288.94;5006559;28;1187;-73
2023/08/08 09:22:00;;;;;;;;;;;;;;;17.12;75.81;101283.91;5007002;28;1090;-73
2023/08/08 09:24:26;;;;;;;;;;;;;;;17.22;75.21;101285.44;5006625;28;1551;-74
2023/08/08 09:26:51;;;;;;;;;;;;;;;17.29;70.63;101285.59;5007987;28;1101;-74
2023/08/08 09:29:16;;;;;;;;;;;;;;;17.27;73.88;101277.09;5009640;28;1106;-74
2023/08/08 09:31:42;;;;;;;;;;;;;;;17.34;74.18;101279.91;5007780;28;1887;-74
2023/08/08 09:34:07;;;;;;;;;;;;;;;17.46;72.44;101281.25;5009528;28;1165;-74
2023/08/08 09:36:33;;;;;;;;;;;;;;;17.48;71.70;101290.59;5008752;28;1075;-75
2023/08/08 09:38:59;;;;;;;;;;;;;;;17.43;71.92;101286.81;5009297;28;1127;-75
2023/08/08 09:41:24;;;;;;;;;;;;;;;17.45;72.05;101290.94;5009036;28;1087;-74
2023/08/08 09:43:50;;;;;;;;;;;;;;;17.60;71.96;101292.91;5008604;28;1154;-74
2023/08/08 09:46:15;;;;;;;;;;;;;;;17.69;70.75;101289.34;5008498;28;1089;-74
2023/08/08 09:48:41;;;;;;;;;;;;;;;17.74;72.13;101285.31;5008974;28;1052;-73
2023/08/08 09:51:07;;;;;;;;;;;;;;;17.86;70.82;101288.44;5009236;28;1894;-73
2023/08/08 09:53:33;;;;;;;;;;;;;;;17.92;70.71;101287.78;5008928;28;1151;-74
2023/08/08 09:55:58;;;;;;;;;;;;;;;18.07;69.48;101290.59;5008137;28;1091;-73
2023/08/08 09:58:23;;;;;;;;;;;;;;;17.94;69.42;101298.94;5008959;28;1096;-74
2023/08/08 10:00:49;;;;;;;;;;;;;;;17.94;69.42;101293.69;5010896;28;1128;-73
2023/08/08 10:03:15;;;;;;;;;;;;;;;17.99;70.82;101301.91;5012123;28;1092;-74
2023/08/08 10:05:40;;;;;;;;;;;;;;;18.08;70.42;101296.69;5009972;28;1045;-74
2023/08/08 10:08:06;;;;;;;;;;;;;;;18.14;69.37;101293.41;5010560;28;1095;-74
2023/08/08 10:10:31;;;;;;;;;;;;;;;18.23;69.28;101295.03;5009519;28;1910;-74
2023/08/08 10:12:56;;;;;;;;;;;;;;;18.01;70.89;101302.56;4991354;28;1220;-74
2023/08/08 10:15:26;;;;;;;;;;;;;;;18.02;69.13;101303.41;5008212;28;2766;-74
2023/08/08 10:17:53;;;;;;;;;;;;;;;17.88;69.97;101301.38;5009283;28;1151;-73
2023/08/08 10:20:18;;;;;;;;;;;;;;;17.83;70.77;101296.63;5011126;28;1130;-74
2023/08/08 10:22:45;;;;;;;;;;;;;;;17.91;69.97;101301.06;4993444;28;1262;-74
2023/08/08 10:25:17;;;;;;;;;;;;;;;17.98;69.04;101302.06;5012403;28;1165;-74
2023/08/08 10:27:42;;;;;;;;;;;;;;;17.88;68.17;101312.69;5007888;28;1138;-74
2023/08/08 10:30:13;;;;;;;;;;;;;;;17.80;69.81;101314.50;5007860;28;1891;-74
2023/08/08 10:32:42;;;;;;;;;;;;;;;17.81;69.90;101306.47;4994003;28;1091;-74
2023/08/08 10:35:08;;;;;;;;;;;;;;;18.01;69.14;101302.56;5004561;28;1154;-74
2023/08/08 10:37:34;;;;;;;;;;;;;;;18.12;68.83;101298.81;4998569;28;1108;-74
2023/08/08 10:40:05;;;;;;;;;;;;;;;18.05;69.00;101306.50;5009806;28;1046;-73
2023/08/08 10:42:30;;;;;;;;;;;;;;;18.03;69.15;101305.84;4995265;28;1145;-74
2023/08/08 10:44:57;;;;;;;;;;;;;;;18.02;68.93;101309.47;4984334;28;1361;-74
2023/08/08 10:47:23;;;;;;;;;;;;;;;18.07;68.76;101305.53;5002388;28;1122;-73
2023/08/08 10:50:08;;;;;;;;;;;;;;;18.08;68.14;101307.19;5001351;28;1961;-73
2023/08/08 10:52:37;;;;;;;;;;;;;;;18.03;67.77;101305.84;4991861;28;1081;-74
2023/08/08 10:55:03;;;;;;;;;;;;;;;18.11;65.95;101301.59;4990525;28;1252;-74
2023/08/08 10:57:28;;;;;;;;;;;;;;;18.15;66.60;101298.47;4992824;28;1100;-73
2023/08/08 10:59:54;;;;;;;;;;;;;;;18.20;67.63;101300.63;4994207;28;1093;-74
2023/08/08 11:02:20;;;;;;;;;;;;;;;18.28;66.35;101292.72;4992498;28;1100;-74
2023/08/08 11:04:45;;;;;;;;;;;;;;;18.27;67.89;101296.34;4992815;28;1077;-73
2023/08/08 11:07:11;;;;;;;;;;;;;;;18.42;66.31;101293.91;4991228;28;1091;-73
2023/08/08 11:09:36;;;;;;;;;;;;;;;18.57;65.36;101297.47;4987077;28;1902;-74
2023/08/08 11:12:01;;;;;;;;;;;;;;;18.61;66.74;101297.97;4995192;28;1165;-74
2023/08/08 11:14:26;;;;;;;;;;;;;;;18.59;66.40;101303.41;4995114;28;1195;-74
2023/08/08 11:16:52;;;;;;;;;;;;;;;18.71;65.22;101304.72;4997615;28;1089;-73
2023/08/08 11:19:19;;;;;;;;;;;;;;;18.70;65.57;101297.03;4999317;28;1165;-73
2023/08/08 11:21:44;;;;;;;;;;;;;;;18.76;65.98;101296.34;4999584;28;1124;-73
2023/08/08 11:24:11;;;;;;;;;;;;;;;18.85;66.52;101300.59;5000261;28;1088;-73
2023/08/08 11:26:37;;;;;;;;;;;;;;;19.01;64.92;101289.22;5000142;28;1182;-73
2023/08/08 11:29:03;;;;;;;;;;;;;;;19.12;66.11;101282.78;5004148;28;1148;-73
2023/08/08 11:31:28;;;;;;;;;;;;;;;19.28;65.36;101285.34;4998460;28;1894;-72
2023/08/08 11:33:54;;;;;;;;;;;;;;;19.45;61.76;101278.22;4998519;28;1093;-74
2023/08/08 11:36:20;;;;;;;;;;;;;;;19.28;62.20;101288.00;5005834;28;1134;-74
2023/08/08 11:38:46;;;;;;;;;;;;;;;19.35;62.57;101286.31;4998543;28;1027;-74
2023/08/08 11:41:12;;;;;;;;;;;;;;;19.65;60.48;101287.31;4985584;28;1216;-73
2023/08/08 11:43:38;;;;;;;;;;;;;;;19.45;60.15;101281.66;5004533;28;1142;-73
2023/08/08 11:46:03;;;;;;;;;;;;;;;19.31;59.64;101274.47;4997700;28;1096;-75
2023/08/08 11:48:32;;;;;;;;;;;;;;;19.26;61.82;101276.78;4987315;28;1264;-73
2023/08/08 11:50:57;;;;;;;;;;;;;;;19.37;63.73;101284.31;4999505;28;1898;-73
2023/08/08 11:53:23;;;;;;;;;;;;;;;19.55;63.43;101282.25;4984667;28;1326;-73
2023/08/08 11:55:48;;;;;;;;;;;;;;;19.67;62.26;101281.88;4990151;28;1283;-74
2023/08/08 11:58:14;;;;;;;;;;;;;;;19.72;62.78;101276.91;4996021;28;942;-75
2023/08/08 12:00:39;;;;;;;;;;;;;;;19.90;60.16;101280.13;4989329;28;1077;-73
2023/08/08 12:03:06;;;;;;;;;;;;;;;19.82;61.67;101277.53;4987529;28;1113;-74
2023/08/08 12:05:37;;;;;;;;;;;;;;;19.91;60.83;101281.75;4989069;28;1102;-75
2023/08/08 12:08:04;;;;;;;;;;;;;;;19.95;59.76;101277.75;4988782;28;1110;-75
2023/08/08 12:10:29;;;;;;;;;;;;;;;19.88;58.53;101277.63;4987211;28;1922;-75
2023/08/08 12:12:57;;;;;;;;;;;;;;;19.85;57.30;101269.28;4993151;28;1097;-74
2023/08/08 12:15:22;;;;;;;;;;;;;;;19.67;58.96;101289.78;4990126;28;975;-73
2023/08/08 12:17:49;;;;;;;;;;;;;;;19.65;58.97;101289.13;4989857;28;1085;-73
2023/08/08 12:20:14;;;;;;;;;;;;;;;19.59;59.00;101288.84;4996052;28;1091;-73
2023/08/08 12:22:39;;;;;;;;;;;;;;;19.57;58.07;101301.31;4990971;28;1133;-73
2023/08/08 12:25:05;;;;;;;;;;;;;;;19.48;58.14;101280.47;4979362;28;1164;-73
2023/08/08 12:27:30;;;;;;;;;;;;;;;19.44;57.39;101295.81;4981979;28;1333;-74
2023/08/08 12:29:55;;;;;;;;;;;;;;;19.40;58.56;101283.97;5010269;28;1899;-73
2023/08/08 12:32:24;;;;;;;;;;;;;;;19.39;58.43;101279.72;5010394;28;1106;-73
2023/08/08 12:34:50;;;;;;;;;;;;;;;19.43;58.37;101277.53;5010063;28;1068;-73